createdAt,value
2023-03-06T12:20:32.388Z,46.68
2023-03-06T12:23:14.909Z,45.39
2023-03-06T12:25:42.933Z,45.52
2023-03-06T12:28:18.011Z,44.94
2023-03-06T12:31:06.518Z,44.46
2023-03-06T12:33:36.158Z,45.58
2023-03-06T12:36:13.224Z,45.28
2023-03-06T12:38:58.022Z,44.44
2023-03-06T12:41:31.672Z,43.90
2023-03-06T12:44:16.994Z,42.70
2023-03-06T12:46:44.938Z,43.36
2023-03-06T12:49:23.093Z,43.36
2023-03-06T12:51:59.156Z,42.37
2023-03-06T12:54:28.834Z,42.98
2023-03-06T12:56:56.374Z,42.06
2023-03-06T12:59:40.300Z,43.41
2023-03-06T13:02:58.097Z,44.58
2023-03-06T13:05:47.750Z,43.69
2023-03-06T13:08:27.604Z,43.93
2023-03-06T13:11:11.474Z,43.35
2023-03-06T13:13:42.263Z,43.46
2023-03-06T13:16:13.881Z,43.19
2023-03-06T13:18:52.459Z,43.73
2023-03-06T13:21:44.644Z,43.66
2023-03-06T13:24:18.025Z,43.18
2023-03-06T13:26:50.089Z,41.92
2023-03-06T13:29:46.244Z,43.19
2023-03-06T13:32:16.723Z,42.62
2023-03-06T13:34:44.081Z,41.74
2023-03-06T13:37:47.858Z,40.82
2023-03-06T13:40:29.069Z,40.26
2023-03-06T13:43:21.248Z,40.84
2023-03-06T13:45:48.599Z,41.13
2023-03-06T13:48:43.502Z,40.06
2023-03-06T13:51:22.144Z,40.39
2023-03-06T13:54:18.436Z,41.40
2023-03-06T13:57:13.807Z,40.83
2023-03-06T14:00:10.164Z,37.70
2023-03-06T14:02:50.691Z,37.39
2023-03-06T14:05:18.222Z,37.89
2023-03-06T14:07:45.716Z,37.54
2023-03-06T14:10:20.646Z,36.47
2023-03-06T14:13:01.657Z,35.48
2023-03-06T14:15:31.857Z,34.06
2023-03-06T14:18:01.083Z,35.20
2023-03-06T14:20:33.525Z,36.03
2023-03-06T14:23:30.710Z,35.21
2023-03-06T14:26:01.056Z,35.62
2023-03-06T14:28:30.186Z,34.07
2023-03-06T14:30:58.098Z,33.10
2023-03-06T14:33:31.329Z,35.24
2023-03-06T14:36:00.728Z,35.73
2023-03-06T14:38:28.501Z,33.60
2023-03-06T14:40:55.851Z,33.50
2023-03-06T14:43:24.106Z,33.49
2023-03-06T14:45:56.663Z,33.06
2023-03-06T14:48:24.976Z,33.92
2023-03-06T14:50:53.759Z,33.66
2023-03-06T14:53:23.633Z,32.42
2023-03-06T14:55:51.804Z,33.60
2023-03-06T14:58:20.352Z,32.64
2023-03-06T15:00:49.508Z,32.57
2023-03-06T15:03:19.391Z,32.82
2023-03-06T15:05:46.644Z,32.35
2023-03-06T15:08:14.443Z,32.22
2023-03-06T15:10:41.649Z,33.67
2023-03-06T15:13:09.838Z,31.51
2023-03-06T15:15:37.093Z,32.47
2023-03-06T15:18:30.585Z,32.99
2023-03-06T15:21:07.038Z,34.22
2023-03-06T15:23:38.393Z,35.04
2023-03-06T15:26:19.853Z,34.00
2023-03-06T15:28:59.824Z,33.34
2023-03-06T15:31:34.807Z,32.31
2023-03-06T15:34:18.910Z,32.35
2023-03-06T15:36:46.477Z,32.17
2023-03-06T15:39:27.516Z,32.85
2023-03-06T15:41:56.965Z,33.31
2023-03-06T15:44:24.298Z,34.93
2023-03-06T15:46:53.899Z,33.53
2023-03-06T15:49:28.168Z,32.25
2023-03-06T15:51:55.491Z,31.63
2023-03-06T15:54:22.745Z,31.31
2023-03-06T15:56:50.040Z,31.56
2023-03-06T15:59:20.970Z,31.17
2023-03-06T16:01:48.306Z,30.50
2023-03-06T16:04:15.628Z,28.89
2023-03-06T16:06:44.453Z,26.25
2023-03-06T16:09:11.776Z,24.71
2023-03-06T16:11:44.040Z,22.55
2023-03-06T16:14:17.757Z,21.82
2023-03-06T16:16:45.136Z,23.47
2023-03-06T16:19:25.306Z,21.92
2023-03-06T16:21:55.717Z,21.39
2023-03-06T16:24:23.107Z,18.12
2023-03-06T16:26:50.995Z,13.38
2023-03-06T16:29:18.310Z,10.97
2023-03-06T16:31:45.618Z,11.22
2023-03-06T16:34:12.857Z,11.21
2023-03-06T16:36:40.150Z,11.40
2023-03-06T16:39:10.786Z,11.75
2023-03-06T16:41:38.059Z,12.38
2023-03-06T16:44:05.523Z,13.07
2023-03-06T16:46:32.868Z,12.52
2023-03-06T16:49:00.147Z,12.49
2023-03-06T16:51:27.549Z,13.66
2023-03-06T16:53:54.800Z,13.22
2023-03-06T16:56:23.581Z,13.24
2023-03-06T16:58:50.866Z,13.18
2023-03-06T17:01:18.641Z,12.79
2023-03-06T17:03:45.902Z,13.17
2023-03-06T17:06:14.170Z,14.07
2023-03-06T17:08:41.436Z,14.11
2023-03-06T17:11:08.685Z,14.27
2023-03-06T17:13:37.386Z,14.90
2023-03-06T17:16:04.977Z,14.34
2023-03-06T17:18:33.651Z,14.48
2023-03-06T17:21:01.773Z,13.64
2023-03-06T17:23:32.003Z,13.95
2023-03-06T17:26:06.621Z,13.16
2023-03-06T17:28:33.986Z,13.94
2023-03-06T17:31:02.982Z,13.94
2023-03-06T17:33:30.294Z,12.89
2023-03-06T17:36:00.651Z,13.73
2023-03-06T17:38:27.795Z,13.50
2023-03-06T17:40:54.941Z,13.15
2023-03-06T17:43:22.211Z,12.18
2023-03-06T17:45:49.454Z,11.81
2023-03-06T17:48:18.161Z,11.85
2023-03-06T17:50:53.057Z,13.04
2023-03-06T17:53:20.530Z,13.11
2023-03-06T17:55:47.769Z,12.21
2023-03-06T17:58:14.988Z,11.78
2023-03-06T18:00:42.214Z,11.98
2023-03-06T18:03:09.461Z,12.00
2023-03-06T18:05:38.222Z,11.72
2023-03-06T18:08:05.663Z,12.03
2023-03-06T18:10:32.949Z,11.97
2023-03-06T18:13:00.130Z,12.07
2023-03-06T18:15:27.671Z,12.28
2023-03-06T18:17:55.179Z,11.97
2023-03-06T18:20:22.426Z,12.22
2023-03-06T18:22:51.166Z,12.07
2023-03-06T18:25:18.565Z,12.23
2023-03-06T18:27:45.803Z,12.08
2023-03-06T18:30:13.909Z,11.26
2023-03-06T18:32:41.309Z,10.82
2023-03-06T18:35:09.319Z,11.31
2023-03-06T18:37:36.534Z,11.63
2023-03-06T18:40:06.382Z,11.46
2023-03-06T18:42:33.648Z,11.81
2023-03-06T18:45:00.982Z,12.26
2023-03-06T18:47:28.258Z,12.77
2023-03-06T18:49:55.490Z,12.07
2023-03-06T18:52:22.629Z,12.49
2023-03-06T18:54:49.923Z,12.47
2023-03-06T18:57:18.569Z,12.97
2023-03-06T18:59:45.853Z,12.21
2023-03-06T19:02:13.149Z,12.96
2023-03-06T19:15:23.182Z,12.70
2023-03-06T19:17:50.428Z,16.44
2023-03-06T19:20:17.881Z,18.42
2023-03-06T19:22:47.925Z,14.79
2023-03-06T19:44:10.008Z,16.16
2023-03-06T19:46:37.260Z,16.05
2023-03-06T19:49:04.753Z,16.48
2023-03-06T19:51:31.945Z,16.57
2023-03-06T19:53:59.169Z,15.89
2023-03-06T19:56:27.026Z,16.00
2023-03-06T19:58:54.142Z,16.16
2023-03-06T20:01:23.576Z,16.15
2023-03-06T20:03:52.363Z,15.85
2023-03-06T20:06:20.028Z,16.44
2023-03-06T20:08:47.592Z,17.22
2023-03-06T20:11:18.739Z,16.51
2023-03-06T20:13:47.306Z,17.02
2023-03-06T20:16:14.876Z,16.59
2023-03-06T20:18:43.778Z,16.50
2023-03-06T20:21:10.953Z,16.21
2023-03-06T20:23:38.221Z,16.29
2023-03-06T20:26:05.981Z,15.96
2023-03-06T20:28:33.147Z,15.98
2023-03-06T20:31:06.361Z,16.72
2023-03-06T20:33:33.546Z,16.71
2023-03-06T20:36:02.296Z,17.27
2023-03-06T20:38:29.456Z,16.67
2023-03-06T20:40:56.680Z,16.59
2023-03-06T20:43:23.853Z,17.14
2023-03-06T20:45:58.339Z,17.22
2023-03-06T20:48:25.570Z,22.97
2023-03-06T20:51:03.771Z,17.32
2023-03-06T20:53:30.934Z,16.87
2023-03-06T20:55:58.232Z,16.78
